JM-0017 weather

CLOSED Lydford Airstrip
Golden Grove, Saint Ann, Jamaica

Public forecast

Using degrees Celsius for public forecast. Weather courtesy of forecast.io.

Closest aviation weather report (METAR) to Lydford Airstrip

Closest report is Norman Manley International Airport, 31.1 nm (57.5 km) SE. Retrieved 2019/10/14 11:00 UTC (45 minutes ago):

MKJP 141100Z 34009KT 9999 -TSRA SCT018 BKN020CB 24/24 Q1013

Closest aviation forecast (TAF) to Lydford Airstrip

Closest forecast is Norman Manley International Airport, 31.1 nm (57.5 km) SE. Retrieved 2019/10/14 06:19 UTC (5 hours ago):

TAF MKJP 140515Z 1406/1506 34007KT 9999 SCT018 SCT020CB TEMPO 1407/1412 6000 TSRA BKN018CB BECMG 1413/1415 14016KT PROB30 TEMPO 1416/1422 SHRA BKN018 SCT020CB BECMG 1501/1503 FEW022